Time;durP1;ratioP1;P1;durP2;ratioP2;P2;SDS_P1;SDS_P2;PMS_P1;PMS_P2;Temp;Humidity;BMP_temperature;BMP_pressure;BME280_temperature;BME280_humidity;BME280_pressure;Samples;Min_cycle;Max_cycle;Signal;HPM_P1;HPM_P2
2021/05/09 00:01:34;;;;;;;20.88;12.68;;;16.20;99.90;;;;;;5081433;28;20429;-71
2021/05/09 00:04:01;;;;;;;18.25;11.85;;;16.10;99.90;;;;;;5087415;28;20426;-70
2021/05/09 00:06:27;;;;;;;18.90;12.10;;;16.10;99.90;;;;;;5083015;28;20425;-71
2021/05/09 00:08:54;;;;;;;20.00;12.20;;;16.10;99.90;;;;;;5085543;28;20488;-70
2021/05/09 00:11:21;;;;;;;22.05;12.18;;;16.10;99.90;;;;;;5085444;28;20434;-71
2021/05/09 00:13:47;;;;;;;19.33;11.50;;;16.10;99.90;;;;;;5081938;28;20457;-70
2021/05/09 00:16:14;;;;;;;18.98;12.52;;;16.10;99.90;;;;;;5086646;28;20436;-71
2021/05/09 00:18:40;;;;;;;17.80;11.50;;;16.10;99.90;;;;;;5079129;28;20422;-71
2021/05/09 00:21:07;;;;;;;16.70;11.23;;;16.00;99.90;;;;;;5083641;28;20429;-70
2021/05/09 00:23:34;;;;;;;18.30;11.50;;;16.10;99.90;;;;;;5081643;28;20777;-69
2021/05/09 00:26:00;;;;;;;20.85;12.13;;;16.00;99.90;;;;;;5084592;28;20434;-71
2021/05/09 00:28:28;;;;;;;17.65;12.07;;;16.00;99.90;;;;;;5086782;28;20418;-69
2021/05/09 00:30:54;;;;;;;20.80;12.57;;;15.90;99.90;;;;;;5086234;28;20454;-70
2021/05/09 00:33:21;;;;;;;18.10;12.20;;;15.90;99.90;;;;;;5085102;28;20448;-71
2021/05/09 00:35:48;;;;;;;17.80;13.30;;;15.90;99.90;;;;;;5083519;28;20422;-69
2021/05/09 00:38:14;;;;;;;19.58;13.35;;;15.90;99.90;;;;;;5082039;28;20422;-70
2021/05/09 00:40:40;;;;;;;22.67;14.52;;;15.80;99.90;;;;;;5084961;28;20441;-72
2021/05/09 00:43:07;;;;;;;20.67;14.93;;;15.80;99.90;;;;;;5079394;28;21253;-71
2021/05/09 00:45:34;;;;;;;22.10;15.55;;;15.70;99.90;;;;;;5087070;28;20426;-71
2021/05/09 00:48:01;;;;;;;21.35;15.60;;;15.60;99.90;;;;;;5084250;28;20450;-70
2021/05/09 00:50:28;;;;;;;22.67;15.80;;;15.60;99.90;;;;;;5102555;28;20432;-71
2021/05/09 00:52:56;;;;;;;22.25;15.00;;;15.60;99.90;;;;;;5080750;28;20509;-70
2021/05/09 00:55:23;;;;;;;21.83;15.80;;;15.50;99.90;;;;;;5086405;28;20435;-70
2021/05/09 00:57:50;;;;;;;20.38;14.63;;;15.50;99.90;;;;;;5081956;28;20508;-70
2021/05/09 01:00:17;;;;;;;19.77;15.00;;;15.50;99.90;;;;;;5084996;28;20425;-70
2021/05/09 01:02:46;;;;;;;19.05;14.52;;;15.40;99.90;;;;;;5068406;28;20460;-72
2021/05/09 01:05:14;;;;;;;19.58;13.75;;;15.40;99.90;;;;;;5067746;28;20427;-69
2021/05/09 01:07:41;;;;;;;20.73;13.90;;;15.40;99.90;;;;;;5099756;28;20421;-68
2021/05/09 01:10:10;;;;;;;18.75;12.60;;;15.40;99.90;;;;;;5082794;28;20429;-69
2021/05/09 01:12:37;;;;;;;18.67;13.20;;;15.30;99.90;;;;;;5082637;28;20913;-70
2021/05/09 01:15:06;;;;;;;19.80;12.77;;;15.30;99.90;;;;;;5083802;28;20427;-71
2021/05/09 01:17:33;;;;;;;18.80;12.87;;;15.30;99.90;;;;;;5085116;28;20472;-69
2021/05/09 01:20:01;;;;;;;16.88;11.75;;;15.40;99.90;;;;;;5085088;28;20929;-69
2021/05/09 01:22:31;;;;;;;17.98;12.13;;;15.40;99.90;;;;;;5065943;28;20980;-70
2021/05/09 01:24:58;;;;;;;17.75;12.23;;;15.40;99.90;;;;;;5098124;28;20418;-71
2021/05/09 01:27:25;;;;;;;19.17;12.50;;;15.40;99.90;;;;;;5084757;28;20577;-69
2021/05/09 01:29:51;;;;;;;19.20;12.40;;;15.40;99.90;;;;;;5086626;28;20413;-69
2021/05/09 01:32:18;;;;;;;18.98;12.10;;;15.30;99.90;;;;;;5081252;28;20453;-72
2021/05/09 01:34:44;;;;;;;19.25;12.43;;;15.40;99.90;;;;;;5067269;28;20513;-71
2021/05/09 01:37:15;;;;;;;17.15;11.90;;;15.30;99.90;;;;;;5084747;28;20436;-71
2021/05/09 01:39:42;;;;;;;16.58;12.00;;;15.30;99.90;;;;;;5085832;28;20424;-70
2021/05/09 01:42:08;;;;;;;16.35;12.13;;;15.30;99.90;;;;;;5080675;28;20417;-69
2021/05/09 01:44:48;;;;;;;19.45;11.75;;;15.30;99.90;;;;;;5067349;28;20429;-70
2021/05/09 01:47:14;;;;;;;18.17;11.98;;;15.30;99.90;;;;;;5065409;28;20917;-70
2021/05/09 01:49:40;;;;;;;20.00;11.35;;;15.30;99.90;;;;;;5083400;28;20429;-69
2021/05/09 01:52:07;;;;;;;17.20;10.95;;;15.30;99.90;;;;;;5063200;28;20449;-70
2021/05/09 01:54:34;;;;;;;19.27;11.10;;;15.30;99.90;;;;;;5066919;28;20458;-69
2021/05/09 01:57:02;;;;;;;18.70;11.05;;;15.30;99.90;;;;;;5065884;28;20416;-71
2021/05/09 01:59:32;;;;;;;15.20;10.80;;;15.30;99.90;;;;;;5098444;28;20427;-70
2021/05/09 02:02:00;;;;;;;14.68;10.15;;;15.30;99.90;;;;;;5060440;28;20437;-71
2021/05/09 02:04:34;;;;;;;16.33;10.07;;;15.30;99.90;;;;;;5066209;28;20439;-70
2021/05/09 02:07:03;;;;;;;17.38;9.90;;;15.30;99.90;;;;;;5099601;28;20819;-71
2021/05/09 02:09:30;;;;;;;17.13;9.77;;;15.20;99.90;;;;;;5062598;28;20437;-69
2021/05/09 02:11:59;;;;;;;13.68;9.60;;;15.20;99.90;;;;;;5080073;28;20516;-69
2021/05/09 02:14:41;;;;;;;15.10;10.20;;;15.20;99.90;;;;;;5066436;28;20934;-70
2021/05/09 02:17:10;;;;;;;15.50;10.35;;;15.20;99.90;;;;;;5064464;28;20421;-70
2021/05/09 02:19:37;;;;;;;14.82;9.90;;;15.20;99.90;;;;;;5067155;28;20509;-70
2021/05/09 02:22:07;;;;;;;15.95;10.00;;;15.20;99.90;;;;;;5081268;28;20425;-69
2021/05/09 02:24:34;;;;;;;13.63;9.32;;;15.20;99.90;;;;;;5092594;28;20418;-70
2021/05/09 02:27:02;;;;;;;14.90;9.93;;;15.20;99.90;;;;;;5083614;28;20448;-69
2021/05/09 02:29:29;;;;;;;18.33;9.70;;;15.20;99.90;;;;;;5083326;28;20453;-70
2021/05/09 02:31:56;;;;;;;15.88;9.50;;;15.20;99.90;;;;;;5084214;28;20421;-69
2021/05/09 02:34:29;;;;;;;15.53;9.20;;;15.10;99.90;;;;;;5087314;28;20421;-70
2021/05/09 02:36:55;;;;;;;14.73;9.05;;;15.10;99.90;;;;;;5086618;28;20424;-70
2021/05/09 02:39:22;;;;;;;13.57;8.70;;;15.10;99.90;;;;;;5072179;28;20418;-70
2021/05/09 02:41:48;;;;;;;14.40;8.70;;;15.10;99.90;;;;;;5083880;28;20421;-71
2021/05/09 02:44:16;;;;;;;12.77;8.98;;;15.10;99.90;;;;;;5071561;28;20417;-71
2021/05/09 02:46:45;;;;;;;15.20;8.70;;;15.10;99.90;;;;;;5087524;28;20470;-70
2021/05/09 02:49:11;;;;;;;12.45;8.60;;;15.00;99.90;;;;;;5088447;28;20425;-71
2021/05/09 02:51:38;;;;;;;12.97;8.60;;;15.10;99.90;;;;;;5086818;28;20730;-70
2021/05/09 02:54:06;;;;;;;14.02;8.27;;;15.10;99.90;;;;;;5070753;28;20859;-69
2021/05/09 02:56:33;;;;;;;16.92;8.43;;;15.00;99.90;;;;;;5068137;28;20935;-70
2021/05/09 02:59:02;;;;;;;15.53;8.50;;;15.00;99.90;;;;;;5081453;28;20480;-68
2021/05/09 03:01:31;;;;;;;12.00;7.80;;;15.00;99.90;;;;;;5103195;28;20479;-72
2021/05/09 03:03:57;;;;;;;13.90;8.10;;;15.00;99.90;;;;;;5086605;28;20425;-72
2021/05/09 03:06:24;;;;;;;15.15;8.00;;;15.00;99.90;;;;;;5098507;28;20911;-70
2021/05/09 03:08:51;;;;;;;15.13;8.40;;;15.00;99.90;;;;;;5086841;28;20778;-73
2021/05/09 03:11:17;;;;;;;13.65;8.00;;;15.00;99.90;;;;;;5093122;28;20442;-70
2021/05/09 03:13:44;;;;;;;14.35;8.02;;;15.00;99.90;;;;;;5066112;28;20461;-69
2021/05/09 03:16:10;;;;;;;14.85;7.80;;;15.00;99.90;;;;;;5083520;28;20431;-70
2021/05/09 03:18:38;;;;;;;12.45;7.65;;;15.00;99.90;;;;;;5086691;28;20422;-72
2021/05/09 03:21:04;;;;;;;12.63;7.82;;;15.00;99.90;;;;;;5086895;28;20902;-71
2021/05/09 03:23:31;;;;;;;12.15;7.63;;;15.00;99.90;;;;;;5069074;28;20437;-71
2021/05/09 03:25:57;;;;;;;11.68;7.28;;;15.00;99.90;;;;;;5086255;28;20433;-70
2021/05/09 03:28:23;;;;;;;13.20;7.45;;;15.00;99.90;;;;;;5087029;28;20487;-69
2021/05/09 03:30:50;;;;;;;10.88;6.88;;;15.00;99.90;;;;;;5087452;28;20414;-70
2021/05/09 03:33:16;;;;;;;13.25;7.65;;;15.00;99.90;;;;;;5084788;28;20427;-68
2021/05/09 03:35:43;;;;;;;12.98;7.40;;;15.00;99.90;;;;;;5088583;28;20781;-69
2021/05/09 03:38:10;;;;;;;13.82;7.45;;;15.00;99.90;;;;;;5084851;28;20769;-70
2021/05/09 03:40:37;;;;;;;13.57;7.13;;;15.00;99.90;;;;;;5085281;28;20444;-69
2021/05/09 03:43:04;;;;;;;11.85;7.13;;;14.90;99.90;;;;;;5086704;28;20422;-70
2021/05/09 03:45:30;;;;;;;12.02;7.15;;;15.00;99.90;;;;;;5081141;28;20431;-70
2021/05/09 03:47:57;;;;;;;12.23;7.37;;;15.00;99.90;;;;;;5084846;28;20418;-70
2021/05/09 03:50:23;;;;;;;13.00;7.40;;;14.90;99.90;;;;;;5085105;28;20425;-70
2021/05/09 03:52:50;;;;;;;12.80;7.30;;;14.90;99.90;;;;;;5084862;28;20768;-70
2021/05/09 03:55:17;;;;;;;12.10;7.27;;;14.90;99.90;;;;;;5065149;28;20421;-69
2021/05/09 03:57:43;;;;;;;13.27;8.30;;;14.90;99.90;;;;;;5087014;28;20433;-69
2021/05/09 04:00:11;;;;;;;12.20;7.95;;;14.90;99.90;;;;;;5086490;28;20425;-69
2021/05/09 04:02:43;;;;;;;11.82;6.97;;;14.90;99.90;;;;;;5075686;28;20439;-69
2021/05/09 04:05:11;;;;;;;12.68;7.15;;;14.90;99.90;;;;;;5082364;28;20499;-69
2021/05/09 04:07:38;;;;;;;13.73;7.07;;;15.00;99.90;;;;;;5085577;28;20957;-69
2021/05/09 04:10:06;;;;;;;10.98;6.82;;;15.00;99.90;;;;;;5084508;28;21040;-69
2021/05/09 04:12:32;;;;;;;13.65;6.78;;;15.00;99.90;;;;;;5084199;28;20444;-69
2021/05/09 04:14:59;;;;;;;13.40;7.05;;;15.00;99.90;;;;;;5081146;28;20500;-69
2021/05/09 04:17:26;;;;;;;13.90;7.03;;;14.90;99.90;;;;;;5078500;28;20478;-70
2021/05/09 04:19:52;;;;;;;13.20;6.95;;;15.00;99.90;;;;;;5087336;28;20426;-69
2021/05/09 04:22:18;;;;;;;10.38;6.55;;;14.90;99.90;;;;;;5085661;28;20723;-70
2021/05/09 04:24:45;;;;;;;12.43;7.05;;;14.90;99.90;;;;;;5086767;28;20418;-69
2021/05/09 04:27:12;;;;;;;11.65;6.53;;;15.00;99.90;;;;;;5081006;28;20422;-69
2021/05/09 04:29:38;;;;;;;12.82;6.90;;;15.00;99.90;;;;;;5085942;28;20425;-70
2021/05/09 04:32:06;;;;;;;11.93;6.38;;;15.00;99.90;;;;;;5064751;28;20436;-69
2021/05/09 04:34:32;;;;;;;11.43;6.10;;;15.00;99.90;;;;;;5085215;28;20478;-70
2021/05/09 04:36:58;;;;;;;11.00;6.50;;;14.90;99.90;;;;;;5083416;28;20429;-71
2021/05/09 04:39:25;;;;;;;10.98;6.28;;;15.00;99.90;;;;;;5085144;28;20421;-70
2021/05/09 04:41:51;;;;;;;11.65;6.45;;;15.00;99.90;;;;;;5084310;28;20445;-69
2021/05/09 04:44:20;;;;;;;10.27;6.33;;;15.00;99.90;;;;;;5086867;28;20924;-69
2021/05/09 04:46:46;;;;;;;10.30;6.70;;;15.00;99.90;;;;;;5082955;28;20465;-70
2021/05/09 04:49:13;;;;;;;12.57;6.68;;;15.00;99.90;;;;;;5086119;28;20418;-70
2021/05/09 04:51:39;;;;;;;10.68;6.85;;;15.00;99.90;;;;;;5082214;28;20452;-70
2021/05/09 04:54:06;;;;;;;11.32;6.72;;;15.00;99.90;;;;;;5085932;28;20845;-70
2021/05/09 04:56:32;;;;;;;11.60;6.60;;;15.00;99.90;;;;;;5083077;28;20425;-70
2021/05/09 04:58:59;;;;;;;11.33;6.80;;;15.00;99.90;;;;;;5081785;28;20513;-70
2021/05/09 05:01:26;;;;;;;13.00;6.73;;;15.00;99.90;;;;;;5084602;28;20890;-69
2021/05/09 05:03:52;;;;;;;11.00;6.55;;;15.00;99.90;;;;;;5085691;28;21135;-70
2021/05/09 05:06:19;;;;;;;11.10;6.50;;;15.00;99.90;;;;;;5065286;28;20426;-71
2021/05/09 05:08:46;;;;;;;10.47;6.20;;;15.00;99.90;;;;;;5084902;28;20455;-70
2021/05/09 05:11:12;;;;;;;10.40;6.40;;;15.00;99.90;;;;;;5077665;28;20802;-70
2021/05/09 05:13:38;;;;;;;11.70;6.72;;;15.00;99.90;;;;;;5085162;28;20474;-70
2021/05/09 05:16:07;;;;;;;12.52;6.93;;;15.00;99.90;;;;;;5080389;28;20433;-69
2021/05/09 05:18:35;;;;;;;11.65;6.57;;;15.00;99.90;;;;;;5083165;28;20460;-68
2021/05/09 05:21:03;;;;;;;10.63;6.60;;;15.00;99.90;;;;;;5063191;28;20475;-71
2021/05/09 05:23:30;;;;;;;11.18;6.65;;;15.00;99.90;;;;;;5081741;28;20520;-69
2021/05/09 05:25:57;;;;;;;11.95;7.03;;;15.00;99.90;;;;;;5080482;28;20422;-68
2021/05/09 05:28:23;;;;;;;11.20;6.78;;;15.10;99.90;;;;;;5087585;28;20426;-70
2021/05/09 05:30:51;;;;;;;9.45;6.65;;;15.10;99.90;;;;;;5088597;28;20503;-69
2021/05/09 05:33:26;;;;;;;12.77;6.95;;;15.10;99.90;;;;;;5088431;28;20942;-70
2021/05/09 05:35:54;;;;;;;10.15;6.50;;;15.10;99.90;;;;;;5086070;28;20919;-70
2021/05/09 05:38:21;;;;;;;9.55;6.47;;;15.10;99.90;;;;;;5088678;28;20406;-70
2021/05/09 05:40:49;;;;;;;11.32;6.90;;;15.10;99.90;;;;;;5087771;28;20947;-71
2021/05/09 05:43:16;;;;;;;9.40;6.95;;;15.20;99.90;;;;;;5087899;28;20453;-71
2021/05/09 05:45:42;;;;;;;9.77;6.32;;;15.20;99.90;;;;;;5087610;28;20421;-71
2021/05/09 05:48:09;;;;;;;9.40;6.30;;;15.20;99.90;;;;;;5088558;28;20433;-71
2021/05/09 05:50:35;;;;;;;11.65;6.95;;;15.20;99.90;;;;;;5088633;28;20421;-71
2021/05/09 05:53:03;;;;;;;12.27;6.93;;;15.20;99.90;;;;;;5083541;28;20410;-70
2021/05/09 05:55:29;;;;;;;11.55;6.45;;;15.20;99.90;;;;;;5069894;28;21003;-70
2021/05/09 05:57:55;;;;;;;10.77;6.80;;;15.30;99.90;;;;;;5087907;28;20943;-70
2021/05/09 06:00:22;;;;;;;10.77;6.78;;;15.30;99.90;;;;;;5087704;28;20412;-69
2021/05/09 06:02:49;;;;;;;9.07;6.38;;;15.30;99.90;;;;;;5089272;28;20413;-70
2021/05/09 06:05:16;;;;;;;10.93;6.40;;;15.30;99.90;;;;;;5092420;28;20869;-71
2021/05/09 06:07:42;;;;;;;11.93;6.20;;;15.30;99.90;;;;;;5092165;28;20429;-70
2021/05/09 06:10:11;;;;;;;10.07;6.25;;;15.30;99.90;;;;;;5072826;28;20421;-70
2021/05/09 06:12:38;;;;;;;11.40;6.72;;;15.40;99.90;;;;;;5091356;28;20466;-69
2021/05/09 06:15:06;;;;;;;9.85;6.47;;;15.40;99.90;;;;;;5089900;28;20473;-69
2021/05/09 06:17:32;;;;;;;10.80;6.40;;;15.40;99.90;;;;;;5090892;28;20599;-69
2021/05/09 06:19:58;;;;;;;10.77;6.32;;;15.40;99.80;;;;;;5091760;28;20873;-70
2021/05/09 06:22:25;;;;;;;12.02;6.32;;;15.50;99.90;;;;;;5089684;28;20432;-69
2021/05/09 06:24:51;;;;;;;11.27;6.50;;;15.40;99.80;;;;;;5089598;28;20464;-71
2021/05/09 06:27:18;;;;;;;12.15;6.40;;;15.50;99.80;;;;;;5096885;28;20434;-68
2021/05/09 06:29:45;;;;;;;8.60;6.13;;;15.50;99.90;;;;;;5088352;28;20901;-71
2021/05/09 06:32:11;;;;;;;10.95;6.22;;;15.60;99.70;;;;;;5086173;28;20919;-69
2021/05/09 06:34:38;;;;;;;12.57;6.55;;;15.60;99.60;;;;;;5071156;28;20425;-68
2021/05/09 06:37:04;;;;;;;8.68;6.20;;;15.60;99.60;;;;;;5084948;28;20429;-69
2021/05/09 06:39:31;;;;;;;10.82;6.47;;;15.70;99.60;;;;;;5087498;28;20438;-70
2021/05/09 06:41:58;;;;;;;10.95;6.03;;;15.70;99.60;;;;;;5066549;28;20876;-69
2021/05/09 06:44:29;;;;;;;9.10;6.53;;;15.70;99.50;;;;;;5069436;28;20440;-70
2021/05/09 06:46:55;;;;;;;13.63;6.40;;;15.80;99.60;;;;;;5087987;28;20923;-71
2021/05/09 06:49:22;;;;;;;10.27;6.50;;;15.80;99.70;;;;;;5086931;28;20429;-69
2021/05/09 06:51:49;;;;;;;10.05;6.25;;;15.80;99.80;;;;;;5103682;28;20426;-70
2021/05/09 06:54:16;;;;;;;13.23;6.85;;;15.90;99.70;;;;;;5069555;28;20436;-69
2021/05/09 06:56:42;;;;;;;11.88;6.57;;;15.90;99.70;;;;;;5088447;28;20422;-70
2021/05/09 06:59:08;;;;;;;10.98;6.53;;;15.90;99.60;;;;;;5086072;28;20924;-70
2021/05/09 07:01:36;;;;;;;10.80;6.45;;;16.00;99.50;;;;;;5084755;28;20448;-70
2021/05/09 07:04:02;;;;;;;11.00;6.40;;;16.00;99.50;;;;;;5088605;28;20460;-69
2021/05/09 07:06:29;;;;;;;9.87;6.40;;;16.00;99.80;;;;;;5084069;28;20429;-70
2021/05/09 07:08:55;;;;;;;9.37;6.50;;;16.10;99.50;;;;;;5086965;28;20966;-70
2021/05/09 07:11:21;;;;;;;10.98;6.40;;;16.20;99.60;;;;;;5068111;28;20210;-71
2021/05/09 07:13:48;;;;;;;8.85;6.00;;;15.90;99.90;;;;;;5082237;28;20194;-68
2021/05/09 07:16:15;;;;;;;9.80;6.20;;;15.70;99.90;;;;;;5098790;28;20439;-73
2021/05/09 07:18:42;;;;;;;10.77;6.53;;;15.90;99.90;;;;;;5085614;28;20945;-68
2021/05/09 07:21:13;;;;;;;10.10;6.00;;;16.10;99.90;;;;;;5086254;28;20478;-69
2021/05/09 07:23:45;;;;;;;10.50;5.77;;;16.30;99.30;;;;;;5067242;28;22195;-70
2021/05/09 07:26:11;;;;;;;10.18;6.07;;;16.40;99.20;;;;;;5085467;28;20508;-70
2021/05/09 07:28:38;;;;;;;8.13;5.43;;;16.50;98.30;;;;;;5086215;28;20773;-69
2021/05/09 07:31:04;;;;;;;9.25;5.60;;;16.60;97.90;;;;;;5084342;28;20417;-70
2021/05/09 07:33:30;;;;;;;9.35;5.40;;;16.60;97.50;;;;;;5085127;28;20430;-69
2021/05/09 07:35:58;;;;;;;7.90;5.30;;;16.80;97.40;;;;;;5086113;28;20414;-71
2021/05/09 07:38:24;;;;;;;11.50;5.90;;;16.90;97.20;;;;;;5068880;28;20414;-68
2021/05/09 07:40:51;;;;;;;8.55;5.50;;;17.00;97.10;;;;;;5085880;28;20437;-70
2021/05/09 07:43:18;;;;;;;8.87;5.40;;;17.10;96.70;;;;;;5068870;28;20430;-70
2021/05/09 07:45:45;;;;;;;9.80;5.53;;;17.20;96.30;;;;;;5084414;28;20459;-70
2021/05/09 07:48:11;;;;;;;10.50;5.22;;;17.30;96.10;;;;;;5083832;28;20424;-71
2021/05/09 07:50:39;;;;;;;10.32;5.85;;;17.40;95.60;;;;;;5086073;28;20426;-69
2021/05/09 07:53:06;;;;;;;10.00;5.80;;;17.40;96.20;;;;;;5085661;28;20897;-69
2021/05/09 07:55:33;;;;;;;8.65;5.90;;;17.40;96.60;;;;;;5085904;28;20517;-70
2021/05/09 07:57:59;;;;;;;17.20;8.20;;;17.40;97.10;;;;;;5067260;28;20415;-70
2021/05/09 08:00:26;;;;;;;16.67;7.60;;;17.40;99.90;;;;;;5086049;28;20511;-69
2021/05/09 08:02:53;;;;;;;13.20;8.20;;;17.30;99.90;;;;;;5083734;28;20461;-69
2021/05/09 08:05:20;;;;;;;16.17;8.50;;;17.20;99.90;;;;;;5103170;28;20418;-70
2021/05/09 08:07:51;;;;;;;14.93;8.10;;;17.10;99.90;;;;;;5084142;28;20457;-69
2021/05/09 08:10:19;;;;;;;15.30;8.95;;;17.00;99.90;;;;;;5083061;28;20429;-68
2021/05/09 08:12:45;;;;;;;12.30;8.07;;;16.90;99.90;;;;;;5081198;28;20430;-70
2021/05/09 08:15:13;;;;;;;13.95;8.30;;;16.90;99.90;;;;;;5067468;28;20429;-72
2021/05/09 08:17:39;;;;;;;13.77;8.82;;;16.80;99.90;;;;;;5082664;28;20811;-71
2021/05/09 08:20:07;;;;;;;12.68;8.30;;;16.80;99.90;;;;;;5084603;28;20426;-69
2021/05/09 08:22:34;;;;;;;13.60;8.50;;;16.80;99.90;;;;;;5100761;28;20422;-70
2021/05/09 08:25:00;;;;;;;15.60;9.30;;;16.80;99.90;;;;;;5082481;28;22099;-71
2021/05/09 08:27:30;;;;;;;12.77;9.10;;;16.80;99.90;;;;;;5084345;28;20773;-70
2021/05/09 08:29:57;;;;;;;13.65;8.45;;;16.80;99.90;;;;;;5082753;28;20425;-71
2021/05/09 08:32:23;;;;;;;15.40;8.75;;;16.90;99.90;;;;;;5083483;28;20985;-70
2021/05/09 08:34:49;;;;;;;13.80;9.10;;;16.90;99.90;;;;;;5085530;28;20490;-72
2021/05/09 08:37:16;;;;;;;14.97;9.20;;;17.00;99.90;;;;;;5084549;28;20479;-72
2021/05/09 08:39:42;;;;;;;12.97;8.53;;;17.00;99.90;;;;;;5085099;28;20422;-70
2021/05/09 08:42:09;;;;;;;13.32;8.50;;;17.00;99.90;;;;;;5067510;28;20422;-72
2021/05/09 08:44:36;;;;;;;14.18;7.78;;;17.00;99.90;;;;;;5086990;28;20801;-71
2021/05/09 08:47:04;;;;;;;12.23;8.57;;;17.00;99.90;;;;;;5084731;28;20425;-71
2021/05/09 08:49:30;;;;;;;12.70;8.30;;;17.10;99.90;;;;;;5083876;28;20469;-72
2021/05/09 08:51:57;;;;;;;12.35;8.80;;;17.10;99.90;;;;;;5083988;28;20515;-71
2021/05/09 08:54:23;;;;;;;12.20;8.13;;;17.20;99.90;;;;;;5086435;28;20430;-72
2021/05/09 08:56:50;;;;;;;11.15;7.53;;;17.20;99.90;;;;;;5085258;28;20418;-69
2021/05/09 08:59:16;;;;;;;13.50;7.47;;;17.30;99.90;;;;;;5083321;28;20833;-70
2021/05/09 09:01:44;;;;;;;11.73;7.70;;;17.40;99.90;;;;;;5085555;28;20680;-68
2021/05/09 09:04:13;;;;;;;12.90;7.72;;;17.20;99.90;;;;;;5083820;28;20616;-71
2021/05/09 09:06:41;;;;;;;12.45;7.25;;;17.10;99.90;;;;;;5069258;28;20710;-71
2021/05/09 09:09:19;;;;;;;7.70;6.20;;;17.10;99.90;;;;;;5086816;28;20217;-70
2021/05/09 09:11:53;;;;;;;11.23;7.03;;;17.10;99.90;;;;;;5086566;28;20205;-71
2021/05/09 09:14:25;;;;;;;9.95;6.38;;;17.20;99.90;;;;;;5086327;28;20225;-71
2021/05/09 09:17:08;;;;;;;8.77;6.15;;;17.30;99.90;;;;;;5083460;28;20677;-71
2021/05/09 09:19:34;;;;;;;11.98;6.70;;;17.40;99.90;;;;;;5083032;28;20274;-71
2021/05/09 09:22:01;;;;;;;10.25;6.57;;;17.40;99.90;;;;;;5083378;28;20676;-69
2021/05/09 09:24:27;;;;;;;11.50;6.97;;;17.50;99.90;;;;;;5084934;28;20193;-71
2021/05/09 09:26:54;;;;;;;12.43;7.28;;;17.60;99.90;;;;;;5083976;28;20237;-69
2021/05/09 09:29:23;;;;;;;7.90;6.45;;;17.70;99.90;;;;;;5085028;28;20222;-72
2021/05/09 09:31:53;;;;;;;9.35;6.55;;;17.80;99.90;;;;;;5084630;28;20247;-69
2021/05/09 09:34:22;;;;;;;8.88;6.38;;;17.90;99.90;;;;;;5085488;28;20205;-70
2021/05/09 09:36:48;;;;;;;8.85;7.07;;;18.10;99.90;;;;;;5081827;28;20205;-70
2021/05/09 09:39:15;;;;;;;11.18;6.38;;;18.20;99.90;;;;;;5084372;28;20210;-70
2021/05/09 09:41:48;;;;;;;12.98;6.82;;;18.30;99.90;;;;;;5081421;28;20202;-70
2021/05/09 09:44:16;;;;;;;8.05;5.70;;;18.40;99.90;;;;;;5087369;28;20212;-71
2021/05/09 09:46:49;;;;;;;6.18;5.35;;;18.50;99.90;;;;;;5064214;28;20292;-70
2021/05/09 09:49:21;;;;;;;8.82;5.30;;;18.70;99.90;;;;;;5083271;28;20598;-70
2021/05/09 09:51:50;;;;;;;8.73;5.00;;;18.70;99.90;;;;;;5082720;28;20291;-70
2021/05/09 09:54:38;;;;;;;7.70;4.70;;;18.90;99.90;;;;;;5084325;28;20209;-71
2021/05/09 09:57:27;;;;;;;6.10;4.45;;;19.00;99.90;;;;;;5061466;28;20305;-69
2021/05/09 10:00:07;;;;;;;9.57;4.88;;;19.10;99.90;;;;;;5066384;28;20210;-69
2021/05/09 10:02:34;;;;;;;7.30;4.60;;;19.20;99.90;;;;;;5083389;28;20200;-72
2021/05/09 10:05:02;;;;;;;6.68;4.93;;;19.30;99.90;;;;;;5101751;28;20706;-71
2021/05/09 10:07:28;;;;;;;7.75;4.95;;;19.40;99.90;;;;;;5082296;28;20197;-70
2021/05/09 10:09:55;;;;;;;8.77;4.97;;;19.40;99.90;;;;;;5098099;28;20244;-69
2021/05/09 10:12:23;;;;;;;7.75;5.10;;;19.50;99.90;;;;;;5079393;28;20205;-69
2021/05/09 10:14:49;;;;;;;8.85;4.50;;;19.50;99.80;;;;;;5086398;28;20201;-69
2021/05/09 10:17:16;;;;;;;7.93;5.10;;;19.60;99.60;;;;;;5085265;28;20197;-68
2021/05/09 10:19:44;;;;;;;8.75;5.35;;;19.70;99.20;;;;;;5104650;28;20206;-70
2021/05/09 10:22:29;;;;;;;9.75;5.35;;;19.70;99.00;;;;;;5086179;28;20571;-70
2021/05/09 10:24:56;;;;;;;10.00;5.30;;;19.80;98.70;;;;;;5069750;28;20198;-71
2021/05/09 10:27:35;;;;;;;11.10;6.50;;;19.90;98.50;;;;;;5088585;28;20238;-71
2021/05/09 10:30:01;;;;;;;9.68;5.78;;;19.90;98.30;;;;;;5085994;28;20206;-70
2021/05/09 10:32:49;;;;;;;11.95;6.35;;;20.10;98.10;;;;;;5088984;28;20250;-67
2021/05/09 10:35:52;;;;;;;9.30;6.22;;;20.10;97.90;;;;;;5088160;28;20202;-71
2021/05/09 10:38:20;;;;;;;9.45;6.30;;;20.20;97.80;;;;;;5088175;28;20225;-70
2021/05/09 10:40:46;;;;;;;7.57;5.60;;;20.20;97.70;;;;;;5088064;28;20202;-71
2021/05/09 10:43:38;;;;;;;9.65;5.68;;;20.30;97.60;;;;;;5086351;28;20220;-69
2021/05/09 10:46:08;;;;;;;9.32;6.10;;;20.40;97.70;;;;;;5083523;28;20216;-70
2021/05/09 10:48:36;;;;;;;9.02;5.70;;;20.50;97.60;;;;;;5087508;28;20214;-72
2021/05/09 10:51:30;;;;;;;8.50;6.20;;;20.60;97.10;;;;;;5091959;28;20197;-73
2021/05/09 10:54:24;;;;;;;10.85;6.38;;;20.60;96.80;;;;;;5090718;28;20243;-69
2021/05/09 10:56:52;;;;;;;8.32;5.57;;;20.60;96.60;;;;;;5090685;28;20198;-71
2021/05/09 10:59:19;;;;;;;9.65;6.15;;;20.60;96.60;;;;;;5091088;28;20736;-69
2021/05/09 11:01:45;;;;;;;9.40;6.45;;;20.60;96.50;;;;;;5091284;28;20220;-71
2021/05/09 11:04:13;;;;;;;9.25;5.60;;;20.60;96.40;;;;;;5090995;28;20555;-71
2021/05/09 11:06:42;;;;;;;8.63;5.47;;;20.60;96.40;;;;;;5083192;28;20276;-72
2021/05/09 11:09:11;;;;;;;7.97;5.75;;;20.60;96.50;;;;;;5086570;28;20290;-69
2021/05/09 11:12:01;;;;;;;10.65;5.68;;;20.70;96.70;;;;;;5083540;28;20288;-70
2021/05/09 11:14:38;;;;;;;9.85;5.32;;;20.80;96.70;;;;;;5087628;28;20214;-68
2021/05/09 11:17:17;;;;;;;6.88;5.60;;;20.90;96.70;;;;;;5086394;28;20211;-69
2021/05/09 11:19:52;;;;;;;7.35;5.63;;;20.90;96.70;;;;;;5087343;28;20231;-69
2021/05/09 11:22:24;;;;;;;9.27;5.28;;;20.90;96.40;;;;;;5069711;28;20224;-69
2021/05/09 11:24:58;;;;;;;7.93;4.68;;;20.90;96.20;;;;;;5087373;28;20201;-68
2021/05/09 11:27:26;;;;;;;9.73;4.28;;;20.80;95.90;;;;;;5068389;28;20608;-71
2021/05/09 11:29:54;;;;;;;16.92;5.20;;;20.80;95.60;;;;;;5085752;28;20221;-70
2021/05/09 11:32:22;;;;;;;12.18;5.40;;;20.70;95.90;;;;;;5084517;28;20243;-71
2021/05/09 11:34:51;;;;;;;9.60;5.60;;;20.70;96.50;;;;;;5086668;28;20209;-71
2021/05/09 11:37:18;;;;;;;11.52;5.97;;;20.40;97.00;;;;;;5085693;28;20456;-70
2021/05/09 11:39:45;;;;;;;10.90;6.60;;;20.10;98.10;;;;;;5087794;28;20208;-69
2021/05/09 11:42:14;;;;;;;11.82;6.60;;;19.80;98.60;;;;;;5086617;28;20243;-71
2021/05/09 11:44:43;;;;;;;13.55;6.80;;;19.50;99.50;;;;;;5085662;28;20201;-69
2021/05/09 11:47:12;;;;;;;12.57;6.43;;;19.40;99.90;;;;;;5084567;28;20217;-70
2021/05/09 11:49:39;;;;;;;9.15;6.20;;;19.30;99.90;;;;;;5087818;28;20328;-70
2021/05/09 11:52:08;;;;;;;11.50;6.00;;;19.20;99.90;;;;;;5083522;28;20209;-68
2021/05/09 11:54:36;;;;;;;9.73;6.40;;;19.20;99.90;;;;;;5087065;28;20665;-69
2021/05/09 11:57:03;;;;;;;12.52;7.07;;;19.10;99.90;;;;;;5086348;28;20200;-69
2021/05/09 11:59:42;;;;;;;8.55;5.82;;;19.20;99.90;;;;;;5081973;28;20207;-69
2021/05/09 12:02:29;;;;;;;10.55;5.35;;;19.30;99.90;;;;;;5086338;28;20342;-70
2021/05/09 12:04:57;;;;;;;6.93;5.07;;;19.40;99.90;;;;;;5088341;28;20665;-72
2021/05/09 12:07:25;;;;;;;7.75;5.30;;;19.50;99.90;;;;;;5084786;28;20205;-69
2021/05/09 12:10:12;;;;;;;7.13;4.65;;;19.50;99.90;;;;;;5087454;28;20625;-69
2021/05/09 12:12:40;;;;;;;8.82;4.80;;;19.50;99.90;;;;;;5084730;28;20659;-70
2021/05/09 12:15:10;;;;;;;9.95;5.97;;;19.50;99.90;;;;;;5085049;28;20715;-70
2021/05/09 12:17:49;;;;;;;7.18;5.45;;;19.50;99.90;;;;;;5086256;28;20206;-69
2021/05/09 12:20:33;;;;;;;6.35;5.50;;;19.50;99.90;;;;;;5084427;28;20217;-70
2021/05/09 12:23:02;;;;;;;6.22;5.25;;;19.60;99.90;;;;;;5086620;28;20209;-69
2021/05/09 12:25:30;;;;;;;7.43;5.07;;;19.80;99.90;;;;;;5085470;28;20289;-71
2021/05/09 12:28:08;;;;;;;11.65;6.18;;;20.00;99.90;;;;;;5085544;28;20209;-69
2021/05/09 12:30:35;;;;;;;9.10;4.90;;;20.10;99.90;;;;;;5085445;28;20206;-70
2021/05/09 12:33:02;;;;;;;8.20;5.10;;;20.30;99.90;;;;;;5084329;28;20200;-71
2021/05/09 12:35:40;;;;;;;9.05;4.97;;;20.40;99.90;;;;;;5084756;28;20296;-69
2021/05/09 12:38:06;;;;;;;5.75;4.50;;;20.60;99.90;;;;;;5083395;28;20189;-70
2021/05/09 12:40:36;;;;;;;6.43;4.65;;;20.80;99.90;;;;;;5085298;28;20225;-70
2021/05/09 12:43:05;;;;;;;5.90;4.22;;;21.00;99.90;;;;;;5085802;28;20209;-69
2021/05/09 12:45:41;;;;;;;7.47;4.53;;;21.20;99.90;;;;;;5085040;28;20279;-69